X  Sluiten METAR luchtvaart weer gegevens      KDNN Dalton Municipal Airport
Temperatuur
14°C Temperatuur
1°C Dauwpunt
41% Vochtigheid



Wind
8 KM/U
5 MPH
2 M/S
4 KTS



Kalm
N
Huidig weer

Helder Helder
Luchtdruk 1019.98 (hPa) - 30.12 (inHg)
Zicht 10 (mijl) - 16.1 (km)
Vliegveld
Vliegveld code KDNN

Locatie : Dalton Municipal Airport
Afstand: 34 (km)

Metar:
KDNN 261455Z AUTO VRB04KT 10SM CLR 14/01 A3012 RMK AO2 T01400014

Tijd: 02-26-2024 09:55 EST